Time;durP1;ratioP1;P1;durP2;ratioP2;P2;SDS_P1;SDS_P2;PMS_P1;PMS_P2;Temp;Humidity;BMP_temperature;BMP_pressure;BME280_temperature;BME280_humidity;BME280_pressure;Samples;Min_cycle;Max_cycle;Signal;HPM_P1;HPM_P2
2022/09/25 00:00:49;;;;;;;20.88;15.48;;;10.70;99.90;;;;;;4853167;29;37993;-84
2022/09/25 00:03:17;;;;;;;25.35;15.63;;;10.70;99.90;;;;;;4874545;29;38030;-84
2022/09/25 00:05:44;;;;;;;25.00;16.80;;;10.60;99.90;;;;;;4860781;29;37689;-85
2022/09/25 00:08:11;;;;;;;19.27;11.07;;;10.60;99.90;;;;;;4850328;29;36686;-84
2022/09/25 00:10:49;;;;;;;21.27;11.95;;;10.60;99.90;;;;;;4857616;29;37085;-84
2022/09/25 00:13:17;;;;;;;16.60;9.35;;;10.60;99.90;;;;;;4857726;29;37969;-84
2022/09/25 00:15:50;;;;;;;17.05;10.20;;;10.60;99.90;;;;;;4856632;29;38610;-85
2022/09/25 00:19:48;;;;;;;18.85;12.88;;;10.60;99.90;;;;;;4872810;29;37187;-85
2022/09/25 00:21:04;;;;;;;19.83;16.25;;;10.60;99.90;;;;;;4871074;29;39662;-84
2022/09/25 00:23:31;;;;;;;27.20;17.90;;;10.50;99.90;;;;;;4857506;29;47274;-85
2022/09/25 00:25:58;;;;;;;22.45;16.48;;;10.50;99.90;;;;;;4856593;29;37540;-84
2022/09/25 00:28:27;;;;;;;27.80;19.17;;;10.50;99.90;;;;;;4852153;29;37208;-85
2022/09/25 00:30:55;;;;;;;19.23;13.30;;;10.40;99.90;;;;;;4851013;29;37931;-85
2022/09/25 00:33:21;;;;;;;22.00;12.77;;;10.40;99.90;;;;;;4853936;29;37915;-85
2022/09/25 00:35:48;;;;;;;17.03;9.03;;;10.40;99.90;;;;;;4850648;29;38525;-84
2022/09/25 00:38:14;;;;;;;13.77;10.77;;;10.40;99.90;;;;;;4871220;29;37548;-84
2022/09/25 00:40:40;;;;;;;14.35;10.05;;;10.40;99.90;;;;;;4859023;29;39566;-83
2022/09/25 00:43:32;;;;;;;13.88;9.70;;;10.40;99.90;;;;;;4857518;29;37935;-83
2022/09/25 00:46:01;;;;;;;16.35;9.60;;;10.40;99.90;;;;;;4875549;29;38703;-84
2022/09/25 00:48:28;;;;;;;14.73;8.73;;;10.40;99.90;;;;;;4868919;29;38079;-84
2022/09/25 00:50:57;;;;;;;9.93;6.30;;;10.30;99.90;;;;;;4852319;29;37939;-84
2022/09/25 00:53:30;;;;;;;11.67;6.40;;;10.30;99.90;;;;;;4872173;29;38550;-85
2022/09/25 00:56:00;;;;;;;8.70;5.50;;;10.30;99.90;;;;;;4865732;29;38543;-84
2022/09/25 00:58:28;;;;;;;8.80;5.70;;;10.30;99.90;;;;;;4857917;29;37551;-84
2022/09/25 01:03:30;;;;;;;16.08;6.82;;;10.20;99.90;;;;;;4984947;23;20049;-78
2022/09/25 01:05:59;;;;;;;11.88;5.78;;;10.20;99.90;;;;;;4878151;29;37271;-78
2022/09/25 01:08:27;;;;;;;11.43;6.37;;;10.10;99.90;;;;;;4888782;29;37122;-78
2022/09/25 01:10:53;;;;;;;11.50;6.57;;;10.10;99.90;;;;;;4891665;29;39958;-78
2022/09/25 01:13:19;;;;;;;10.67;6.63;;;10.00;99.90;;;;;;4873314;29;38286;-78
2022/09/25 01:16:08;;;;;;;8.17;5.20;;;10.00;99.90;;;;;;4886880;29;38596;-78
2022/09/25 01:19:06;;;;;;;10.30;5.27;;;10.00;99.90;;;;;;4891152;29;48396;-78
2022/09/25 01:21:51;;;;;;;9.60;4.30;;;10.00;99.90;;;;;;4876861;29;48334;-78
2022/09/25 01:24:44;;;;;;;8.13;4.53;;;10.00;99.90;;;;;;4899251;29;39028;-78
2022/09/25 01:27:33;;;;;;;10.68;4.55;;;9.90;99.90;;;;;;4890770;29;37708;-78
2022/09/25 01:30:06;;;;;;;9.47;4.10;;;9.90;99.90;;;;;;4884107;29;38013;-78
2022/09/25 01:32:37;;;;;;;7.67;3.90;;;9.90;99.90;;;;;;4879067;29;47050;-77
2022/09/25 01:35:03;;;;;;;10.13;4.10;;;9.90;99.90;;;;;;4890567;29;37928;-78
2022/09/25 01:37:49;;;;;;;8.13;4.33;;;9.80;99.90;;;;;;4882137;29;46113;-78
2022/09/25 01:40:40;;;;;;;8.10;3.80;;;9.80;99.90;;;;;;4873111;29;37623;-78
2022/09/25 01:43:17;;;;;;;8.70;3.40;;;9.80;99.90;;;;;;4879363;29;37785;-78
2022/09/25 01:46:00;;;;;;;9.67;4.60;;;9.80;99.90;;;;;;4889340;29;38823;-78
2022/09/25 01:48:29;;;;;;;5.50;2.88;;;9.90;99.90;;;;;;4878995;29;38356;-78
2022/09/25 01:51:00;;;;;;;6.63;3.40;;;9.80;99.90;;;;;;4877409;29;35900;-78
2022/09/25 01:53:38;;;;;;;6.07;3.60;;;9.80;99.90;;;;;;4890345;29;38948;-79
2022/09/25 01:56:15;;;;;;;9.83;4.00;;;9.80;99.90;;;;;;4890712;29;38200;-78
2022/09/25 01:58:47;;;;;;;8.30;3.20;;;9.80;99.90;;;;;;4894069;29;48848;-78
2022/09/25 02:01:21;;;;;;;8.98;3.08;;;9.80;99.90;;;;;;4873330;29;35772;-78
2022/09/25 02:04:02;;;;;;;7.17;3.40;;;9.70;99.90;;;;;;4865900;29;38081;-78
2022/09/25 02:06:31;;;;;;;6.90;3.20;;;9.70;99.90;;;;;;4857190;29;48667;-78
2022/09/25 02:09:10;;;;;;;6.00;3.60;;;9.70;99.90;;;;;;4865216;29;37746;-78
2022/09/25 02:11:44;;;;;;;5.50;2.80;;;9.60;99.90;;;;;;4875911;29;47624;-78
2022/09/25 02:14:23;;;;;;;8.67;3.03;;;9.60;99.90;;;;;;4858558;29;37552;-78
2022/09/25 02:16:56;;;;;;;9.53;2.50;;;9.70;99.90;;;;;;4868141;29;37759;-78
2022/09/25 02:22:16;;;;;;;6.43;3.43;;;9.80;99.90;;;;;;4878463;29;38038;-78
2022/09/25 02:24:59;;;;;;;10.73;4.03;;;9.80;99.90;;;;;;4854683;29;37913;-78
2022/09/25 02:27:26;;;;;;;4.37;2.57;;;9.90;99.90;;;;;;4860664;29;38582;-78
2022/09/25 02:29:54;;;;;;;7.37;2.87;;;9.90;99.90;;;;;;4868398;29;39319;-77
2022/09/25 02:32:25;;;;;;;5.83;2.80;;;9.90;99.90;;;;;;4876173;29;36898;-78
2022/09/25 02:34:52;;;;;;;6.73;2.70;;;10.00;99.90;;;;;;4859856;29;37735;-78
2022/09/25 02:37:18;;;;;;;5.43;2.53;;;10.00;99.90;;;;;;4855931;29;40702;-78
2022/09/25 02:39:48;;;;;;;4.73;2.40;;;10.10;99.90;;;;;;4866134;29;39522;-78
2022/09/25 02:42:33;;;;;;;8.17;3.03;;;10.10;99.90;;;;;;4856018;29;36067;-78
2022/09/25 02:45:37;;;;;;;9.90;2.63;;;10.20;99.90;;;;;;4870025;29;38995;-78
2022/09/25 02:48:24;;;;;;;4.43;2.77;;;10.20;99.90;;;;;;4855573;29;47255;-78
2022/09/25 02:51:05;;;;;;;3.97;2.80;;;10.30;99.90;;;;;;4873005;29;37923;-78
2022/09/25 02:53:45;;;;;;;6.30;2.70;;;10.40;99.90;;;;;;4869049;29;47146;-77
2022/09/25 02:56:27;;;;;;;6.77;3.10;;;10.40;99.90;;;;;;4871918;29;38872;-78
2022/09/25 02:58:58;;;;;;;7.03;3.10;;;10.40;99.90;;;;;;4867035;29;38888;-78
2022/09/25 03:01:27;;;;;;;6.30;3.00;;;10.40;99.90;;;;;;4871302;29;39418;-78
2022/09/25 03:03:57;;;;;;;8.45;2.53;;;10.40;99.90;;;;;;4885064;29;38104;-78
2022/09/25 03:06:26;;;;;;;6.90;3.33;;;10.40;99.90;;;;;;4891210;29;37478;-77
2022/09/25 03:08:55;;;;;;;8.60;3.20;;;10.40;99.90;;;;;;4892426;29;37577;-77
2022/09/25 03:11:25;;;;;;;7.50;2.60;;;10.40;99.90;;;;;;4874646;29;37691;-78
2022/09/25 03:14:00;;;;;;;6.23;3.30;;;10.30;99.90;;;;;;4892842;29;39034;-78
2022/09/25 03:16:34;;;;;;;5.75;2.95;;;10.30;99.90;;;;;;4889604;29;38080;-78
2022/09/25 03:19:02;;;;;;;6.90;3.20;;;10.30;99.90;;;;;;4892781;29;38480;-78
2022/09/25 03:21:28;;;;;;;5.60;2.60;;;10.30;99.90;;;;;;4876785;29;48566;-78
2022/09/25 03:23:57;;;;;;;4.77;2.57;;;10.20;99.90;;;;;;4879536;29;35969;-78
2022/09/25 03:26:26;;;;;;;5.00;3.03;;;10.30;99.90;;;;;;4880596;29;38054;-78
2022/09/25 03:28:53;;;;;;;6.10;3.43;;;10.30;99.90;;;;;;4876094;29;39435;-78
2022/09/25 03:31:19;;;;;;;6.23;2.40;;;10.40;99.90;;;;;;4876291;29;38361;-78
2022/09/25 03:33:46;;;;;;;8.90;3.05;;;10.40;99.90;;;;;;4875913;29;36126;-78
2022/09/25 03:36:19;;;;;;;7.22;2.28;;;10.50;99.90;;;;;;4876918;29;38921;-78
2022/09/25 03:38:48;;;;;;;11.48;3.90;;;10.60;99.90;;;;;;4894054;29;38951;-78
2022/09/25 03:41:19;;;;;;;10.63;3.63;;;10.70;99.90;;;;;;4896203;29;38421;-78
2022/09/25 03:43:47;;;;;;;6.73;3.20;;;10.90;99.90;;;;;;4894986;29;37486;-78
2022/09/25 03:46:14;;;;;;;8.63;2.85;;;11.00;99.90;;;;;;4878565;29;38698;-78
2022/09/25 03:48:41;;;;;;;7.88;2.90;;;11.10;99.90;;;;;;4898584;29;38361;-78
2022/09/25 03:51:08;;;;;;;6.93;2.33;;;11.20;99.90;;;;;;4901261;29;39556;-78
2022/09/25 03:53:35;;;;;;;8.55;2.80;;;11.20;99.90;;;;;;4897403;29;38408;-78
2022/09/25 03:56:07;;;;;;;12.50;2.92;;;11.30;99.90;;;;;;4897563;29;36920;-77
2022/09/25 03:58:34;;;;;;;8.02;3.33;;;11.30;99.90;;;;;;4891265;29;46848;-77
2022/09/25 04:01:00;;;;;;;10.65;2.90;;;11.40;99.90;;;;;;4895535;29;38377;-77
2022/09/25 04:03:28;;;;;;;8.15;2.58;;;11.40;99.90;;;;;;4896605;29;37393;-78
2022/09/25 04:05:56;;;;;;;9.73;2.75;;;11.40;99.90;;;;;;4902371;29;37039;-77
2022/09/25 04:08:25;;;;;;;12.80;3.35;;;11.40;99.90;;;;;;4901263;29;39230;-77
2022/09/25 04:10:55;;;;;;;9.70;2.47;;;11.40;99.90;;;;;;4900952;29;39036;-78
2022/09/25 04:13:25;;;;;;;13.65;3.00;;;11.40;99.90;;;;;;4876326;29;36102;-77
2022/09/25 04:15:51;;;;;;;7.55;2.45;;;11.40;99.90;;;;;;4903569;29;38252;-77
2022/09/25 04:18:17;;;;;;;6.43;2.15;;;11.40;99.90;;;;;;4902053;29;40328;-77
2022/09/25 04:20:44;;;;;;;7.95;2.40;;;11.40;99.90;;;;;;4885462;29;38872;-78
2022/09/25 04:23:10;;;;;;;4.78;2.70;;;11.30;99.90;;;;;;4885882;29;35825;-77
2022/09/25 04:25:36;;;;;;;9.23;2.35;;;11.30;99.90;;;;;;4887385;29;38070;-77
2022/09/25 04:28:04;;;;;;;5.70;2.58;;;11.20;99.90;;;;;;4902459;29;38805;-78
2022/09/25 04:30:30;;;;;;;13.55;2.97;;;11.10;99.90;;;;;;4885264;29;47045;-78
2022/09/25 04:35:41;;;;;;;10.98;2.35;;;11.00;99.90;;;;;;4901071;29;49053;-77
2022/09/25 04:38:08;;;;;;;7.70;2.33;;;10.90;99.90;;;;;;4900214;29;39339;-77
2022/09/25 04:40:36;;;;;;;6.78;2.30;;;10.90;99.90;;;;;;4880899;29;37097;-78
2022/09/25 04:43:05;;;;;;;9.90;2.30;;;10.80;99.90;;;;;;4899894;29;37605;-78
2022/09/25 04:45:35;;;;;;;5.18;2.25;;;10.70;99.90;;;;;;4884262;29;37882;-77
2022/09/25 04:48:02;;;;;;;4.50;2.43;;;10.70;99.90;;;;;;4901481;29;38885;-77
2022/09/25 04:50:31;;;;;;;8.55;2.55;;;10.70;99.90;;;;;;4900324;29;47763;-78
2022/09/25 04:52:57;;;;;;;6.25;3.28;;;10.60;99.90;;;;;;4894421;29;38153;-77
2022/09/25 04:55:23;;;;;;;2.95;1.85;;;10.60;99.90;;;;;;4890920;29;37755;-78
2022/09/25 04:57:51;;;;;;;10.30;3.47;;;10.50;99.90;;;;;;4879820;29;37361;-78
2022/09/25 05:00:18;;;;;;;11.40;3.80;;;10.50;99.90;;;;;;4873250;29;37671;-77
2022/09/25 05:02:45;;;;;;;4.97;3.28;;;10.50;99.90;;;;;;4897703;29;37603;-78
2022/09/25 05:05:11;;;;;;;4.33;3.47;;;10.40;99.90;;;;;;4889641;29;37696;-77
2022/09/25 05:07:38;;;;;;;8.23;3.87;;;10.30;99.90;;;;;;4880902;29;37610;-77
2022/09/25 05:10:07;;;;;;;6.20;2.80;;;10.30;99.90;;;;;;4899498;29;38555;-78
2022/09/25 05:12:35;;;;;;;6.87;3.00;;;10.30;99.90;;;;;;4883423;29;36632;-77
2022/09/25 05:15:01;;;;;;;9.48;3.03;;;10.30;99.90;;;;;;4892776;29;38020;-77
2022/09/25 05:17:27;;;;;;;5.50;2.73;;;10.20;99.90;;;;;;4896777;29;39100;-78
2022/09/25 05:19:53;;;;;;;7.45;2.55;;;10.20;99.90;;;;;;4902232;29;38602;-77
2022/09/25 05:22:19;;;;;;;4.75;2.45;;;10.20;99.90;;;;;;4877837;29;35980;-77
2022/09/25 05:24:46;;;;;;;8.13;2.90;;;10.20;99.90;;;;;;4879613;29;22248;-78
2022/09/25 05:27:12;;;;;;;11.23;2.50;;;10.30;99.90;;;;;;4899071;29;39818;-77
2022/09/25 05:29:39;;;;;;;8.53;2.90;;;10.30;99.90;;;;;;4894540;29;38962;-77
2022/09/25 05:32:05;;;;;;;6.03;2.33;;;10.30;99.90;;;;;;4897205;29;38458;-78
2022/09/25 05:34:31;;;;;;;8.20;2.93;;;10.30;99.90;;;;;;4899707;29;38472;-77
2022/09/25 05:36:57;;;;;;;4.25;2.70;;;10.40;99.90;;;;;;4894928;29;37634;-77
2022/09/25 05:39:23;;;;;;;11.63;3.77;;;10.40;99.90;;;;;;4894555;29;38718;-78
2022/09/25 05:41:50;;;;;;;5.15;3.08;;;10.50;99.90;;;;;;4895171;29;37370;-78
2022/09/25 05:44:16;;;;;;;5.97;3.28;;;10.60;99.90;;;;;;4895794;29;40335;-78
2022/09/25 05:46:42;;;;;;;8.82;3.15;;;10.60;99.90;;;;;;4879915;29;39088;-78
2022/09/25 05:49:08;;;;;;;5.03;2.75;;;10.60;99.90;;;;;;4878153;29;38849;-77
2022/09/25 05:51:34;;;;;;;8.13;2.80;;;10.70;99.90;;;;;;4879924;29;36052;-77
2022/09/25 05:54:00;;;;;;;5.70;2.40;;;10.70;99.90;;;;;;4879566;29;38656;-77
2022/09/25 05:56:26;;;;;;;3.38;1.95;;;10.70;99.90;;;;;;4889401;29;37439;-77
2022/09/25 05:58:58;;;;;;;6.13;2.42;;;10.70;99.90;;;;;;4898406;29;38138;-78
2022/09/25 06:01:24;;;;;;;3.67;2.53;;;10.70;99.90;;;;;;4876661;29;35536;-78
2022/09/25 06:03:51;;;;;;;6.00;2.92;;;10.70;99.90;;;;;;4892471;29;38799;-78
2022/09/25 06:06:17;;;;;;;7.78;3.03;;;10.80;99.90;;;;;;4876854;29;36869;-77
2022/09/25 06:08:43;;;;;;;8.13;2.95;;;10.80;99.90;;;;;;4893771;29;39238;-79
2022/09/25 06:11:10;;;;;;;7.50;2.55;;;10.80;99.90;;;;;;4876878;29;36200;-77
2022/09/25 06:13:36;;;;;;;6.25;2.80;;;10.90;99.90;;;;;;4875737;29;37713;-77
2022/09/25 06:16:04;;;;;;;5.75;2.85;;;10.90;99.90;;;;;;4878730;29;39121;-77
2022/09/25 06:18:31;;;;;;;8.27;3.40;;;11.00;99.90;;;;;;4885301;29;48779;-78
2022/09/25 06:21:03;;;;;;;12.13;2.45;;;11.00;99.90;;;;;;4877837;29;36078;-78
2022/09/25 06:23:43;;;;;;;7.88;2.88;;;11.00;99.90;;;;;;5137717;27;20393;-78
2022/09/25 06:26:10;;;;;;;8.43;2.55;;;11.10;99.90;;;;;;5129066;27;38138;-78
2022/09/25 06:28:36;;;;;;;6.53;2.95;;;11.10;99.90;;;;;;5124686;27;37468;-78
2022/09/25 06:31:03;;;;;;;8.23;2.88;;;11.20;99.90;;;;;;5137598;27;40498;-78
2022/09/25 06:33:30;;;;;;;4.88;2.22;;;11.30;99.90;;;;;;5120573;27;49726;-78
2022/09/25 06:35:56;;;;;;;5.72;2.50;;;11.30;99.90;;;;;;5132332;27;37381;-78
2022/09/25 06:38:23;;;;;;;9.80;3.83;;;11.40;99.90;;;;;;5129554;27;36563;-78
2022/09/25 06:40:49;;;;;;;7.43;3.60;;;11.50;99.90;;;;;;5113902;27;38602;-78
2022/09/25 06:43:15;;;;;;;10.23;3.30;;;11.60;99.90;;;;;;5103909;27;39446;-78
2022/09/25 06:45:42;;;;;;;4.00;2.33;;;11.80;99.90;;;;;;5114862;27;37384;-78
2022/09/25 06:48:14;;;;;;;6.38;2.58;;;11.80;99.90;;;;;;5105798;27;36084;-78
2022/09/25 06:50:47;;;;;;;13.00;2.63;;;11.90;99.90;;;;;;5104025;28;37929;-78
2022/09/25 06:53:15;;;;;;;7.90;3.08;;;12.00;99.90;;;;;;5114037;27;38031;-78
2022/09/25 06:55:44;;;;;;;8.40;3.15;;;12.10;99.90;;;;;;5117003;27;36378;-78
2022/09/25 06:58:13;;;;;;;6.00;3.30;;;12.30;99.90;;;;;;5127075;27;37866;-78
2022/09/25 07:00:40;;;;;;;7.25;2.42;;;12.20;99.90;;;;;;5137918;27;37859;-79
2022/09/25 07:05:50;;;;;;;6.80;2.58;;;12.30;99.90;;;;;;5109368;27;38182;-78
2022/09/25 07:08:19;;;;;;;8.55;2.28;;;12.30;99.90;;;;;;5124732;27;37646;-78
2022/09/25 07:10:50;;;;;;;8.68;2.85;;;12.30;99.90;;;;;;5133781;27;37506;-78
2022/09/25 07:13:17;;;;;;;6.75;2.60;;;12.40;99.90;;;;;;5118418;27;39972;-78
2022/09/25 07:15:50;;;;;;;5.78;2.50;;;12.40;99.90;;;;;;5127620;27;38163;-78
2022/09/25 07:18:16;;;;;;;5.75;3.15;;;12.50;99.90;;;;;;5125849;27;36392;-78
2022/09/25 07:20:45;;;;;;;3.25;2.00;;;12.60;99.90;;;;;;5111393;27;37219;-78
2022/09/25 07:23:13;;;;;;;6.15;2.45;;;12.60;99.90;;;;;;5117346;27;37336;-78
2022/09/25 07:25:40;;;;;;;4.72;2.83;;;12.70;99.90;;;;;;5100129;27;37440;-78
2022/09/25 07:28:06;;;;;;;5.10;2.97;;;12.70;99.90;;;;;;5120105;27;38031;-78
2022/09/25 07:30:33;;;;;;;3.25;2.30;;;12.80;99.90;;;;;;5112550;27;38878;-78
2022/09/25 07:32:59;;;;;;;6.50;2.83;;;13.00;99.90;;;;;;5105177;27;37256;-77
2022/09/25 07:35:26;;;;;;;6.55;2.80;;;13.00;99.90;;;;;;5104636;27;38136;-78
2022/09/25 07:37:55;;;;;;;4.30;2.45;;;13.10;99.90;;;;;;5100788;27;38096;-78
2022/09/25 07:40:22;;;;;;;6.15;2.40;;;13.20;99.90;;;;;;5093898;27;38140;-77
2022/09/25 07:42:48;;;;;;;5.53;3.47;;;13.30;99.90;;;;;;5091901;27;38865;-78
2022/09/25 07:45:14;;;;;;;6.63;3.30;;;13.40;99.90;;;;;;5108409;27;36318;-77
2022/09/25 07:47:40;;;;;;;7.72;3.63;;;13.30;99.90;;;;;;5105541;27;36084;-77
2022/09/25 07:50:07;;;;;;;8.70;3.65;;;13.40;99.90;;;;;;5103102;27;39191;-78
2022/09/25 07:52:33;;;;;;;4.30;2.10;;;13.40;99.90;;;;;;5093208;27;38890;-77
2022/09/25 07:54:59;;;;;;;7.25;2.75;;;13.40;99.90;;;;;;5087298;27;38024;-77
2022/09/25 07:57:26;;;;;;;10.30;3.03;;;13.30;99.90;;;;;;5093447;27;36201;-77
2022/09/25 07:59:52;;;;;;;5.25;2.65;;;13.40;99.90;;;;;;5094463;28;37798;-77
2022/09/25 08:02:19;;;;;;;7.30;2.10;;;13.40;99.90;;;;;;5108343;27;39114;-78
2022/09/25 08:04:45;;;;;;;3.03;1.67;;;13.50;99.90;;;;;;5103684;27;37799;-79
2022/09/25 08:07:11;;;;;;;9.10;2.15;;;13.50;99.90;;;;;;5093158;27;36031;-79
2022/09/25 08:09:39;;;;;;;5.72;1.52;;;13.60;99.90;;;;;;5096565;28;37862;-78
2022/09/25 08:12:06;;;;;;;3.72;1.73;;;13.70;99.90;;;;;;5105993;27;38965;-78
2022/09/25 08:14:32;;;;;;;6.55;1.50;;;13.80;99.90;;;;;;5092156;28;36436;-79
2022/09/25 08:16:59;;;;;;;3.33;1.88;;;13.90;99.90;;;;;;5087904;27;36239;-78
2022/09/25 08:19:26;;;;;;;6.68;1.50;;;13.90;99.90;;;;;;5096247;27;40368;-79
2022/09/25 08:21:52;;;;;;;5.57;1.40;;;14.00;99.90;;;;;;5088611;27;37374;-78
2022/09/25 08:24:19;;;;;;;5.15;1.58;;;14.20;99.90;;;;;;5078124;27;36765;-79
2022/09/25 08:26:45;;;;;;;3.72;1.13;;;14.30;99.90;;;;;;5119370;27;37469;-79
2022/09/25 08:29:11;;;;;;;4.32;1.30;;;14.40;99.90;;;;;;5108649;27;38609;-79
2022/09/25 08:31:37;;;;;;;5.18;1.45;;;14.40;99.90;;;;;;5088702;28;38166;-79
2022/09/25 08:34:03;;;;;;;3.67;1.10;;;14.60;99.90;;;;;;5088401;27;36761;-76
2022/09/25 08:36:29;;;;;;;3.13;1.17;;;14.70;99.90;;;;;;5103105;27;36700;-75
2022/09/25 08:38:57;;;;;;;3.30;1.10;;;14.70;99.90;;;;;;5097699;27;39242;-76
2022/09/25 08:41:31;;;;;;;6.05;1.25;;;14.70;99.90;;;;;;5108547;27;39373;-75
2022/09/25 08:44:13;;;;;;;4.18;1.02;;;14.70;99.90;;;;;;5105918;27;37356;-77
2022/09/25 08:49:40;;;;;;;7.68;0.90;;;14.60;99.90;;;;;;5130711;27;49030;-77
2022/09/25 08:52:10;;;;;;;4.63;0.95;;;14.50;99.90;;;;;;5124477;27;39507;-76
2022/09/25 08:54:39;;;;;;;4.05;0.98;;;14.40;99.90;;;;;;5122324;27;35866;-76
2022/09/25 08:57:30;;;;;;;5.15;1.20;;;14.50;99.90;;;;;;5132453;27;37709;-78
2022/09/25 09:00:04;;;;;;;2.75;0.70;;;14.50;99.90;;;;;;5118072;27;37868;-76
2022/09/25 09:02:54;;;;;;;2.10;0.90;;;14.60;99.90;;;;;;5105501;27;47016;-77
2022/09/25 09:05:25;;;;;;;2.40;0.85;;;14.60;99.90;;;;;;5108342;27;38658;-77
2022/09/25 09:08:06;;;;;;;4.75;0.98;;;14.70;99.90;;;;;;5127831;27;38338;-78
2022/09/25 09:10:50;;;;;;;7.30;1.05;;;15.00;99.90;;;;;;5101326;27;47171;-77
2022/09/25 09:13:27;;;;;;;3.38;0.70;;;15.30;99.90;;;;;;5114595;27;37954;-75
2022/09/25 09:16:07;;;;;;;3.35;0.90;;;15.60;99.90;;;;;;5106510;27;37388;-82
2022/09/25 09:18:38;;;;;;;6.60;0.90;;;15.90;99.90;;;;;;5119916;27;50021;-83
2022/09/25 09:21:21;;;;;;;5.75;0.88;;;16.10;99.90;;;;;;5106110;27;37106;-77
2022/09/25 09:24:12;;;;;;;3.80;1.15;;;16.20;99.90;;;;;;5109777;27;48640;-76
2022/09/25 09:27:05;;;;;;;6.18;1.30;;;16.30;99.90;;;;;;5113457;27;47213;-77
2022/09/25 09:30:14;;;;;;;3.72;0.90;;;16.30;99.90;;;;;;5102921;27;48216;-77
2022/09/25 09:33:23;;;;;;;5.65;1.10;;;16.40;99.90;;;;;;5109661;27;49136;-76
2022/09/25 09:35:58;;;;;;;3.05;0.82;;;16.40;99.90;;;;;;5092393;27;47144;-77
2022/09/25 09:39:01;;;;;;;3.03;0.90;;;16.60;99.90;;;;;;5103360;27;39196;-78
2022/09/25 09:41:28;;;;;;;;;;;16.70;99.90;;;;;;5112525;27;36407;-78
2022/09/25 09:44:11;;;;;;;3.92;0.95;;;16.80;99.90;;;;;;5111182;27;38068;-77
2022/09/25 09:46:49;;;;;;;4.50;0.77;;;16.90;99.90;;;;;;5107961;27;48645;-78
2022/09/25 09:49:25;;;;;;;5.80;0.80;;;16.80;99.90;;;;;;5095361;27;37852;-76
2022/09/25 09:52:09;;;;;;;5.78;1.10;;;16.90;99.90;;;;;;5102985;27;36394;-76
2022/09/25 09:54:47;;;;;;;2.58;0.77;;;17.00;99.90;;;;;;5115121;27;48456;-77
2022/09/25 09:57:32;;;;;;;4.90;1.40;;;17.00;99.90;;;;;;5116633;27;39086;-78
2022/09/25 10:00:12;;;;;;;3.35;0.98;;;17.00;99.90;;;;;;5117226;27;37988;-78
2022/09/25 10:02:40;;;;;;;3.08;0.68;;;17.00;99.90;;;;;;5115315;27;49615;-76
2022/09/25 10:05:52;;;;;;;4.75;0.73;;;17.00;99.90;;;;;;5120488;27;39883;-75
2022/09/25 10:08:18;;;;;;;4.47;1.20;;;17.00;99.90;;;;;;5085448;27;37420;-75
2022/09/25 10:10:49;;;;;;;4.75;0.90;;;17.00;99.90;;;;;;5099987;27;37184;-75
2022/09/25 10:13:31;;;;;;;3.22;0.80;;;16.90;99.90;;;;;;5086521;27;37186;-75
2022/09/25 10:16:02;;;;;;;2.70;0.82;;;17.00;99.90;;;;;;5106650;27;37918;-75
2022/09/25 10:18:45;;;;;;;6.55;0.90;;;17.20;99.90;;;;;;5109091;28;38087;-75
2022/09/25 10:21:24;;;;;;;4.00;1.00;;;17.50;99.90;;;;;;5087424;28;39176;-76
2022/09/25 10:23:55;;;;;;;2.03;0.80;;;17.60;99.90;;;;;;5089570;28;38044;-76
2022/09/25 10:26:28;;;;;;;2.75;0.60;;;17.80;99.90;;;;;;5079285;28;39074;-75
2022/09/25 10:29:00;;;;;;;3.03;0.63;;;17.80;99.90;;;;;;5087807;28;37720;-75
2022/09/25 10:31:38;;;;;;;2.13;0.40;;;17.90;99.90;;;;;;5108060;27;38415;-74
2022/09/25 10:34:16;;;;;;;2.75;0.55;;;17.90;99.90;;;;;;5085622;28;37636;-76
2022/09/25 10:36:46;;;;;;;1.83;0.43;;;17.90;99.90;;;;;;5107116;28;38794;-76
2022/09/25 10:39:30;;;;;;;1.42;0.57;;;18.10;99.90;;;;;;5093655;28;39070;-75
2022/09/25 10:41:57;;;;;;;3.40;0.50;;;18.20;99.90;;;;;;5106617;27;37711;-76
2022/09/25 10:44:35;;;;;;;3.47;0.40;;;18.40;99.90;;;;;;5085467;28;37328;-75
2022/09/25 10:50:14;;;;;;;3.00;0.40;;;18.70;99.90;;;;;;5107680;27;48966;-75
2022/09/25 10:52:52;;;;;;;2.25;0.40;;;18.60;99.90;;;;;;5112560;27;36587;-75
2022/09/25 10:55:24;;;;;;;2.72;0.50;;;18.50;99.90;;;;;;5095271;28;36329;-75
2022/09/25 10:58:17;;;;;;;1.47;0.40;;;18.40;99.90;;;;;;5104204;27;38563;-75
2022/09/25 11:00:54;;;;;;;2.92;0.43;;;18.30;99.90;;;;;;5106514;27;47161;-75
2022/09/25 11:03:22;;;;;;;3.70;0.77;;;18.20;99.90;;;;;;5112247;27;37423;-74
2022/09/25 11:06:02;;;;;;;1.55;0.50;;;18.10;99.90;;;;;;5110001;27;37989;-76
2022/09/25 11:08:33;;;;;;;4.72;1.02;;;17.90;99.90;;;;;;5120037;27;39257;-74
2022/09/25 11:11:01;;;;;;;2.90;0.45;;;17.70;99.90;;;;;;5130307;27;39373;-77
2022/09/25 11:13:37;;;;;;;1.70;0.40;;;17.40;99.90;;;;;;5130223;27;38146;-75
2022/09/25 11:16:09;;;;;;;1.60;0.60;;;17.20;99.90;;;;;;5134267;27;37049;-75
2022/09/25 11:18:40;;;;;;;1.73;0.50;;;17.00;99.90;;;;;;5137966;27;46971;-75
2022/09/25 11:21:34;;;;;;;1.80;1.02;;;16.90;99.90;;;;;;5107822;27;38741;-76
2022/09/25 11:24:27;;;;;;;3.33;0.98;;;17.00;99.90;;;;;;5107257;28;36427;-75
2022/09/25 11:27:00;;;;;;;2.42;0.68;;;17.20;99.90;;;;;;5102344;27;49671;-76
2022/09/25 11:29:53;;;;;;;4.97;1.23;;;17.00;99.90;;;;;;5112287;27;37518;-75
2022/09/25 11:32:41;;;;;;;1.42;0.52;;;17.20;99.90;;;;;;5105167;27;38491;-75
2022/09/25 11:35:25;;;;;;;2.03;0.70;;;17.20;99.90;;;;;;5109181;27;36813;-75
2022/09/25 11:41:44;;;;;;;1.48;0.35;;;17.90;99.90;;;;;;5115968;27;49053;-75
2022/09/25 11:44:44;;;;;;;2.65;0.30;;;18.10;99.90;;;;;;5088608;27;38459;-75
2022/09/25 11:47:17;;;;;;;1.17;0.32;;;18.20;99.90;;;;;;5109097;27;38515;-75
2022/09/25 11:49:50;;;;;;;26.30;4.38;;;18.40;99.90;;;;;;5115894;27;37239;-75
2022/09/25 11:52:17;;;;;;;7.75;1.30;;;18.50;99.90;;;;;;5091123;28;37941;-76
2022/09/25 11:55:13;;;;;;;2.83;0.38;;;18.80;99.90;;;;;;5094530;27;37554;-75
2022/09/25 11:57:59;;;;;;;2.78;0.30;;;19.10;99.90;;;;;;5099123;27;47372;-75
2022/09/25 12:00:46;;;;;;;5.03;0.50;;;19.50;99.90;;;;;;5107756;27;36107;-75
2022/09/25 12:03:12;;;;;;;1.35;0.40;;;19.80;99.90;;;;;;5117558;27;38885;-75
2022/09/25 12:05:56;;;;;;;2.35;0.50;;;19.80;99.90;;;;;;5111904;27;37594;-75
2022/09/25 12:08:25;;;;;;;1.42;0.40;;;19.90;99.90;;;;;;5124603;27;37654;-75
2022/09/25 12:11:13;;;;;;;3.85;0.52;;;19.90;99.90;;;;;;5105947;27;37033;-76
2022/09/25 12:14:06;;;;;;;1.00;0.38;;;19.70;99.90;;;;;;5103338;27;47297;-75
2022/09/25 12:16:57;;;;;;;1.75;0.35;;;19.10;99.90;;;;;;5090277;27;47068;-75
2022/09/25 12:19:44;;;;;;;0.55;0.30;;;19.00;99.90;;;;;;5102727;27;36148;-75
2022/09/25 12:22:13;;;;;;;3.70;0.65;;;19.10;99.90;;;;;;5099947;27;37586;-75
2022/09/25 12:24:57;;;;;;;1.48;0.30;;;19.30;99.90;;;;;;5106172;27;39297;-75
2022/09/25 12:27:54;;;;;;;1.88;0.60;;;19.30;99.90;;;;;;5103313;27;38110;-75
2022/09/25 12:30:25;;;;;;;3.85;0.70;;;19.40;99.90;;;;;;5141055;27;36876;-75
2022/09/25 12:33:20;;;;;;;2.83;0.50;;;19.50;99.90;;;;;;5138913;27;36008;-75
2022/09/25 12:36:02;;;;;;;2.83;0.40;;;19.70;99.90;;;;;;5104010;27;47070;-75
2022/09/25 12:38:31;;;;;;;1.85;0.40;;;19.80;99.90;;;;;;5100955;27;38102;-75
2022/09/25 12:41:23;;;;;;;2.83;0.43;;;19.70;99.90;;;;;;5109984;27;37357;-75
2022/09/25 12:43:58;;;;;;;3.10;0.45;;;19.70;99.90;;;;;;5093461;27;47073;-75
2022/09/25 12:46:26;;;;;;;3.63;0.30;;;19.90;99.90;;;;;;5086253;28;38564;-75
2022/09/25 12:49:00;;;;;;;1.48;0.35;;;20.00;99.90;;;;;;5090972;28;37583;-75
2022/09/25 12:51:46;;;;;;;1.02;0.25;;;20.00;99.90;;;;;;5095814;28;37668;-76
2022/09/25 12:54:56;;;;;;;1.48;0.38;;;19.70;99.90;;;;;;5081457;28;35993;-75
2022/09/25 12:57:39;;;;;;;0.47;0.10;;;19.60;99.90;;;;;;5108975;27;38692;-75
2022/09/25 13:00:24;;;;;;;1.45;0.20;;;19.50;99.90;;;;;;5108895;28;38160;-75
2022/09/25 13:02:53;;;;;;;1.90;0.30;;;19.30;99.90;;;;;;5104835;27;48450;-75
2022/09/25 13:05:39;;;;;;;1.20;0.30;;;19.30;99.90;;;;;;5109068;27;37442;-75
2022/09/25 13:08:47;;;;;;;1.13;0.20;;;19.30;99.90;;;;;;5108894;27;38745;-76
2022/09/25 13:11:28;;;;;;;2.17;0.25;;;19.20;99.90;;;;;;5048408;28;38507;-75
2022/09/25 13:13:56;;;;;;;2.83;0.60;;;18.90;99.90;;;;;;5077050;28;37594;-75
2022/09/25 13:16:22;;;;;;;2.78;0.25;;;18.60;99.90;;;;;;5100009;27;38131;-76
2022/09/25 13:19:22;;;;;;;1.23;0.40;;;18.40;99.90;;;;;;5102375;27;39220;-75
2022/09/25 13:21:49;;;;;;;0.90;0.30;;;18.50;99.90;;;;;;5112303;27;47141;-75
2022/09/25 13:24:17;;;;;;;1.10;0.28;;;18.70;99.90;;;;;;5123242;27;38716;-75
2022/09/25 13:26:52;;;;;;;2.15;0.40;;;18.90;99.90;;;;;;5099870;28;35287;-75
2022/09/25 13:29:29;;;;;;;0.75;0.20;;;19.00;99.90;;;;;;5109368;27;38875;-75
2022/09/25 13:32:11;;;;;;;1.42;0.40;;;19.00;99.90;;;;;;5104218;27;38887;-76
2022/09/25 13:34:40;;;;;;;2.20;0.30;;;19.20;99.90;;;;;;5121087;27;47519;-75
2022/09/25 13:37:09;;;;;;;1.35;0.30;;;19.00;99.90;;;;;;5120602;27;38031;-76